Aviation Digital Data Service (ADDS)

Output produced by TAFs form (1737 UTC 22 May 2015)
found at http://aviationweather.gov/adds/tafs/
 
KDMN 221143Z 2212/2312 05005KT P6SM SKC 
     FM221700 21012KT P6SM FEW250 
     FM222300 25017G27KT P6SM FEW250 
     FM230600 26012KT P6SM BKN250